Time;durP1;ratioP1;P1;durP2;ratioP2;P2;SDS_P1;SDS_P2;PMS_P1;PMS_P2;Temp;Humidity;BMP_temperature;BMP_pressure;BME280_temperature;BME280_humidity;BME280_pressure;Samples;Min_cycle;Max_cycle;Signal;HPM_P1;HPM_P2
2022/05/03 00:02:16;;;;;;;11.10;7.53;;;5.10;1.00;;;6.11;82.35;98873.66;5022574;27;128348;-77
2022/05/03 00:05:04;;;;;;;14.15;8.75;;;5.10;1.00;;;6.08;82.62;98879.63;5033300;27;129654;-76
2022/05/03 00:07:44;;;;;;;11.95;7.95;;;5.10;1.00;;;6.04;83.10;98872.44;5001701;28;126678;-76
2022/05/03 00:10:16;;;;;;;12.13;8.18;;;5.10;1.00;;;6.03;83.08;98878.91;5017185;28;125730;-75
2022/05/03 00:12:52;;;;;;;15.07;7.82;;;5.10;1.00;;;6.04;82.99;98873.22;5018216;28;129481;-75
2022/05/03 00:15:23;;;;;;;12.18;7.80;;;5.00;1.00;;;5.98;83.37;98871.72;5017040;28;129723;-75
2022/05/03 00:17:53;;;;;;;15.23;8.90;;;5.00;1.00;;;5.94;83.37;98868.00;5018760;28;125509;-77
2022/05/03 00:20:25;;;;;;;13.98;9.05;;;5.00;1.00;;;5.95;83.15;98874.97;5002020;28;126434;-74
2022/05/03 00:22:55;;;;;;;12.98;7.82;;;4.90;1.00;;;5.91;82.82;98863.22;5019570;28;129662;-77
2022/05/03 00:25:24;;;;;;;15.30;9.05;;;4.90;1.00;;;5.87;83.75;98868.38;4986138;28;129145;-75
2022/05/03 00:27:53;;;;;;;13.95;8.30;;;4.90;1.00;;;5.81;84.19;98863.38;5016787;28;125629;-75
2022/05/03 00:30:22;;;;;;;14.73;8.25;;;4.90;1.00;;;5.75;84.90;98860.78;4999326;28;126988;-75
2022/05/03 00:32:54;;;;;;;13.65;8.18;;;4.90;1.00;;;5.74;84.69;98858.38;5015343;28;130187;-77
2022/05/03 00:35:25;;;;;;;11.85;7.82;;;4.80;1.00;;;5.74;84.17;98864.56;5019364;28;129899;-76
2022/05/03 00:37:54;;;;;;;15.07;8.45;;;4.80;1.00;;;5.67;85.13;98852.56;5017730;28;127536;-76
2022/05/03 00:40:24;;;;;;;12.77;8.60;;;4.80;1.00;;;5.64;85.60;98855.84;4985339;28;124919;-76
2022/05/03 00:43:05;;;;;;;13.38;8.20;;;4.80;1.00;;;5.59;85.80;98856.72;4985386;28;129906;-78
2022/05/03 00:45:43;;;;;;;13.27;8.82;;;4.80;1.00;;;5.58;86.17;98855.16;4999531;28;130259;-76
2022/05/03 00:48:31;;;;;;;12.32;7.95;;;4.80;1.00;;;5.58;85.93;98852.44;5017367;28;125638;-76
2022/05/03 00:51:12;;;;;;;15.00;8.88;;;4.70;1.00;;;5.58;86.83;98849.75;5002605;28;125510;-76
2022/05/03 00:53:58;;;;;;;11.65;8.10;;;4.70;1.00;;;5.52;86.35;98842.88;5002506;28;129105;-76
2022/05/03 00:56:46;;;;;;;14.53;8.80;;;4.70;1.00;;;5.42;86.89;98846.50;5001711;28;129254;-76
2022/05/03 00:59:38;;;;;;;15.48;8.55;;;4.70;1.00;;;5.35;86.83;98841.50;5018732;28;124665;-76
2022/05/03 01:02:08;;;;;;;16.27;9.02;;;4.60;1.00;;;5.27;87.22;98844.84;5001977;28;125300;-76
2022/05/03 01:04:50;;;;;;;14.27;8.48;;;4.60;1.00;;;5.23;87.57;98833.06;5001572;28;128808;-76
2022/05/03 01:07:29;;;;;;;14.77;9.38;;;4.60;1.00;;;5.22;87.35;98831.47;5001616;28;128459;-75
2022/05/03 01:10:07;;;;;;;15.55;9.15;;;4.60;1.00;;;5.21;87.59;98840.63;5002223;28;125691;-75
2022/05/03 01:12:54;;;;;;;14.00;7.88;;;4.50;1.00;;;5.15;87.93;98831.03;5018028;28;124906;-75
2022/05/03 01:15:27;;;;;;;14.32;8.70;;;4.50;1.00;;;5.14;87.78;98818.66;5018380;28;129675;-77
2022/05/03 01:18:27;;;;;;;20.45;9.05;;;4.50;1.00;;;5.08;88.25;98825.22;5001884;28;128505;-79
2022/05/03 01:21:09;;;;;;;12.93;8.68;;;4.50;1.00;;;5.08;87.67;98826.03;5001602;28;125402;-76
2022/05/03 01:24:18;;;;;;;15.13;9.40;;;4.40;1.00;;;5.10;87.40;98833.81;5033504;27;126193;-78
2022/05/03 01:27:32;;;;;;;17.15;9.07;;;4.30;1.00;;;5.06;88.17;98827.41;5020947;27;129338;-79
2022/05/03 01:30:05;;;;;;;13.23;8.55;;;4.40;1.00;;;5.08;88.60;98819.84;5018590;27;129912;-74
2022/05/03 01:32:36;;;;;;;12.60;7.82;;;4.50;1.00;;;5.11;88.20;98821.94;5020725;27;126534;-77
2022/05/03 01:35:08;;;;;;;12.77;8.70;;;4.40;1.00;;;5.15;87.83;98825.66;5021203;27;125044;-77
2022/05/03 01:38:06;;;;;;;12.98;9.00;;;4.50;1.00;;;5.10;87.47;98817.69;5036021;27;130165;-77
2022/05/03 01:41:00;;;;;;;13.40;8.68;;;4.40;1.00;;;5.06;87.84;98822.03;5038274;27;130999;-76
2022/05/03 01:43:53;;;;;;;15.18;9.55;;;4.40;1.00;;;5.03;87.46;98821.53;5004086;27;125561;-77
2022/05/03 01:46:28;;;;;;;14.57;9.18;;;4.30;1.00;;;4.99;87.97;98820.50;5005948;27;126011;-75
2022/05/03 01:52:24;;;;;;;14.32;8.80;;;4.20;1.00;;;4.90;88.27;98819.56;5021028;27;128583;-76
2022/05/03 01:55:36;;;;;;;14.02;8.40;;;4.20;1.00;;;4.84;88.63;98815.34;5036139;27;125709;-75
2022/05/03 01:58:18;;;;;;;15.60;9.43;;;4.10;1.00;;;4.83;88.24;98817.22;5038828;27;126128;-76
2022/05/03 02:00:59;;;;;;;12.45;8.88;;;4.10;1.00;;;4.88;88.08;98808.31;5021132;27;129339;-76
2022/05/03 02:03:35;;;;;;;12.57;8.85;;;4.10;1.00;;;4.87;88.38;98814.75;5035818;27;129417;-76
2022/05/03 02:06:10;;;;;;;13.40;9.15;;;4.00;1.00;;;4.82;88.67;98807.56;5021038;27;125497;-77
2022/05/03 02:08:53;;;;;;;16.30;8.63;;;4.10;1.00;;;4.81;88.76;98807.84;4987885;27;124236;-75
2022/05/03 02:11:49;;;;;;;15.45;8.38;;;4.10;1.00;;;4.84;88.51;98804.59;5035380;27;130549;-75
2022/05/03 02:17:54;;;;;;;13.18;9.07;;;4.00;1.00;;;4.79;89.07;98796.59;5035744;27;126791;-75
2022/05/03 02:21:11;;;;;;;13.15;8.77;;;4.10;1.00;;;4.75;89.11;98800.94;5037042;27;126183;-75
2022/05/03 02:23:58;;;;;;;12.95;8.52;;;4.20;1.00;;;4.74;89.17;98804.75;5031930;27;131543;-75
2022/05/03 02:26:44;;;;;;;13.00;8.57;;;4.10;1.00;;;4.74;89.45;98804.75;4987452;27;128862;-75
2022/05/03 02:29:17;;;;;;;15.67;9.53;;;4.00;1.00;;;4.64;89.83;98801.09;5003352;27;125389;-77
2022/05/03 02:31:51;;;;;;;12.60;8.52;;;4.00;1.00;;;4.61;89.75;98801.69;5017200;27;126548;-77
2022/05/03 02:34:37;;;;;;;12.95;8.55;;;4.00;1.00;;;4.64;89.70;98795.72;5017004;27;129599;-77
2022/05/03 02:37:16;;;;;;;11.45;7.85;;;3.90;1.00;;;4.70;88.82;98801.03;5017078;27;129310;-76
2022/05/03 02:39:53;;;;;;;13.05;8.38;;;3.90;1.00;;;4.79;88.27;98796.59;5017113;27;125840;-76
2022/05/03 02:42:23;;;;;;;14.23;8.70;;;3.90;1.00;;;4.88;88.12;98794.84;5035517;27;125952;-77
2022/05/03 02:44:56;;;;;;;13.90;9.05;;;3.90;1.00;;;4.93;87.69;98792.09;5016927;27;129931;-76
2022/05/03 02:47:40;;;;;;;13.00;8.35;;;3.90;1.00;;;4.99;87.63;98790.91;5032515;27;129381;-75
2022/05/03 02:50:13;;;;;;;13.32;8.32;;;3.90;1.00;;;5.09;87.22;98802.63;5000490;28;125173;-76
2022/05/03 02:52:55;;;;;;;14.80;8.70;;;4.10;1.00;;;5.11;86.85;98797.75;5015102;28;125259;-76
2022/05/03 02:55:36;;;;;;;12.27;7.85;;;4.20;1.00;;;5.09;87.16;98797.25;4996577;27;130075;-76
2022/05/03 02:58:19;;;;;;;11.18;7.75;;;4.20;1.00;;;5.13;87.19;98787.50;5006281;28;128653;-76
2022/05/03 03:04:11;;;;;;;13.30;8.10;;;4.40;1.00;;;5.39;86.16;98788.69;5011193;28;126114;-78
2022/05/03 03:06:43;;;;;;;11.52;7.85;;;4.50;1.00;;;5.47;86.11;98794.47;4990210;28;129782;-76
2022/05/03 03:09:22;;;;;;;10.35;7.45;;;4.50;1.00;;;5.66;85.88;98787.16;4990388;28;129255;-75
2022/05/03 03:12:00;;;;;;;11.90;7.07;;;4.70;1.00;;;5.86;84.65;98790.56;5007317;27;124683;-77
2022/05/03 03:14:40;;;;;;;13.48;7.53;;;4.90;1.00;;;6.17;83.99;98784.63;5026399;27;126039;-75
2022/05/03 03:17:12;;;;;;;10.98;7.13;;;5.10;1.00;;;6.37;81.96;98786.91;5024073;27;130125;-79
2022/05/03 03:20:04;;;;;;;11.82;7.32;;;5.20;1.00;;;6.33;80.88;98783.25;5026066;27;128974;-78
2022/05/03 03:22:37;;;;;;;11.63;7.72;;;5.10;1.00;;;6.33;80.62;98799.41;5026043;27;126398;-75
2022/05/03 03:25:12;;;;;;;10.98;7.32;;;5.10;1.00;;;6.32;80.60;98783.56;4992484;27;126438;-76
2022/05/03 03:27:44;;;;;;;10.73;7.13;;;5.10;1.00;;;6.31;80.62;98788.16;5022916;27;129872;-75
2022/05/03 03:30:15;;;;;;;11.07;7.68;;;5.10;1.00;;;6.25;80.93;98786.66;5041502;27;129444;-75
2022/05/03 03:32:48;;;;;;;12.23;7.30;;;5.20;1.00;;;6.32;80.94;98787.03;5026121;27;126052;-76
2022/05/03 03:35:17;;;;;;;12.90;7.68;;;5.30;1.00;;;6.42;80.66;98781.44;5040958;27;125606;-76
2022/05/03 03:37:48;;;;;;;10.00;6.45;;;5.40;1.00;;;6.54;80.35;98786.31;5009077;27;129484;-76
2022/05/03 03:40:21;;;;;;;13.00;7.85;;;5.50;1.00;;;6.58;80.27;98786.53;5026323;27;129919;-75
2022/05/03 03:42:50;;;;;;;13.13;7.97;;;5.60;1.00;;;6.64;80.50;98785.31;5042819;27;125061;-75
2022/05/03 03:45:19;;;;;;;11.20;7.07;;;5.60;1.00;;;6.75;80.55;98783.97;5025782;27;125332;-75
2022/05/03 03:47:49;;;;;;;14.10;7.53;;;5.70;1.00;;;6.90;80.06;98785.53;5043259;27;130499;-76
2022/05/03 03:50:19;;;;;;;11.40;7.30;;;5.80;1.00;;;7.14;79.74;98785.25;5025548;27;129009;-77
2022/05/03 03:52:47;;;;;;;15.38;7.78;;;6.00;1.00;;;7.38;79.01;98792.25;5042703;27;126307;-75
2022/05/03 03:55:20;;;;;;;11.77;7.75;;;6.10;1.00;;;7.59;78.60;98783.63;5010659;27;102985;-76
2022/05/03 03:57:50;;;;;;;12.25;9.27;;;6.30;1.00;;;7.75;78.13;98790.25;5041141;27;129499;-74
2022/05/03 04:00:20;;;;;;;15.85;9.25;;;6.40;1.00;;;8.00;77.33;98798.81;5022488;27;129558;-76
2022/05/03 04:02:49;;;;;;;13.05;8.25;;;6.60;1.00;;;8.14;77.11;98799.50;5026102;27;125377;-75
2022/05/03 04:05:20;;;;;;;11.13;7.45;;;6.80;1.00;;;8.45;75.89;98799.47;5008986;27;125066;-76
2022/05/03 04:07:50;;;;;;;10.80;7.20;;;7.10;1.00;;;8.71;75.01;98795.22;5022951;27;128756;-74
2022/05/03 04:10:21;;;;;;;13.40;7.10;;;7.30;1.00;;;8.99;73.33;98799.22;5037013;27;129450;-76
2022/05/03 04:12:50;;;;;;;12.02;7.97;;;7.50;1.00;;;9.29;72.03;98790.47;5006860;28;126122;-76
2022/05/03 04:15:19;;;;;;;12.15;7.15;;;7.80;1.00;;;9.44;71.68;98795.41;4985433;28;126332;-77
2022/05/03 04:17:48;;;;;;;10.30;6.82;;;7.90;1.00;;;9.64;70.49;98799.31;4985313;28;129408;-73
2022/05/03 04:20:18;;;;;;;10.38;6.95;;;7.90;1.00;;;9.81;70.13;98803.13;5002565;28;129301;-75
2022/05/03 04:22:48;;;;;;;10.98;7.28;;;8.10;1.00;;;9.86;69.77;98801.03;5002144;28;124955;-75
2022/05/03 04:25:19;;;;;;;11.45;6.95;;;8.10;1.00;;;9.91;69.50;98794.66;5028463;27;125246;-75
2022/05/03 04:27:48;;;;;;;12.75;7.90;;;8.20;1.00;;;9.85;69.57;98793.25;5034867;27;129793;-76
2022/05/03 04:30:17;;;;;;;10.65;7.65;;;8.20;1.00;;;9.92;69.80;98793.50;5021845;27;129147;-76
2022/05/03 04:32:47;;;;;;;11.30;7.35;;;8.30;1.00;;;10.16;69.20;98797.56;5005139;27;125500;-79
2022/05/03 04:35:16;;;;;;;12.38;7.32;;;8.50;1.00;;;10.21;68.79;98794.69;5005049;27;126116;-80
2022/05/03 04:37:44;;;;;;;10.60;7.78;;;8.60;1.00;;;10.24;68.26;98796.75;5018130;27;130865;-76
2022/05/03 04:40:13;;;;;;;12.07;7.47;;;8.60;1.00;;;10.27;67.87;98798.81;5021359;27;129259;-79
2022/05/03 04:42:43;;;;;;;11.20;7.28;;;8.60;1.00;;;10.32;66.97;98795.13;5021366;27;125824;-77
2022/05/03 04:45:12;;;;;;;13.15;7.07;;;8.60;1.00;;;10.63;66.30;98791.28;5018793;27;125425;-76
2022/05/03 04:47:41;;;;;;;12.98;8.07;;;8.80;1.00;;;10.77;65.99;98783.72;5028341;27;130559;-79
2022/05/03 04:50:11;;;;;;;11.98;7.00;;;8.90;1.00;;;11.06;65.84;98796.41;5019116;28;129669;-77
2022/05/03 04:52:41;;;;;;;14.00;7.38;;;9.20;1.00;;;11.08;65.47;98783.31;5009569;28;125583;-77
2022/05/03 04:55:10;;;;;;;13.00;6.97;;;9.40;1.00;;;11.24;63.58;98797.06;5007106;28;128181;-76
2022/05/03 04:57:39;;;;;;;14.90;7.82;;;9.30;1.00;;;11.33;62.05;98788.84;4987676;28;130163;-77
2022/05/03 05:00:11;;;;;;;13.75;7.72;;;9.40;1.00;;;11.56;62.07;98780.31;5000761;28;129964;-76
2022/05/03 05:02:40;;;;;;;11.70;7.43;;;9.70;1.00;;;11.75;61.99;98783.31;5000636;28;127238;-77
2022/05/03 05:05:10;;;;;;;11.45;5.55;;;9.90;1.00;;;11.90;59.92;98775.66;5016318;28;126281;-76
2022/05/03 05:07:38;;;;;;;10.70;5.88;;;10.00;1.00;;;11.92;57.86;98776.94;5016307;28;129858;-76
2022/05/03 05:10:28;;;;;;;7.85;4.70;;;9.90;1.00;;;12.00;58.07;98775.25;4994073;28;129405;-76
2022/05/03 05:12:57;;;;;;;8.73;4.93;;;10.10;1.00;;;12.14;57.99;98775.69;5001285;28;125470;-75
2022/05/03 05:15:27;;;;;;;8.18;4.65;;;10.30;1.00;;;12.19;56.78;98770.03;4999308;28;126106;-74
2022/05/03 05:17:58;;;;;;;10.80;4.53;;;10.40;1.00;;;12.20;55.82;98771.63;4998744;28;129955;-76
2022/05/03 05:20:27;;;;;;;9.02;5.15;;;10.40;1.00;;;12.40;56.07;98775.38;5000767;28;128626;-77
2022/05/03 05:22:56;;;;;;;10.20;4.60;;;10.70;1.00;;;12.55;54.96;98770.34;5004332;28;125120;-76
2022/05/03 05:25:25;;;;;;;8.55;4.43;;;10.90;1.00;;;12.65;54.49;98763.63;4981719;28;124824;-77
2022/05/03 05:27:53;;;;;;;8.02;3.65;;;11.00;1.00;;;12.53;53.14;98767.19;4997498;28;130052;-78
2022/05/03 05:30:23;;;;;;;7.65;4.00;;;11.00;1.00;;;12.64;53.33;98760.13;4979485;28;130446;-78
2022/05/03 05:32:53;;;;;;;8.10;3.75;;;11.10;1.00;;;13.18;53.72;98753.50;4963502;28;126294;-79
2022/05/03 05:35:22;;;;;;;9.80;3.03;;;11.60;1.00;;;13.25;51.70;98764.59;5004672;27;125198;-76
2022/05/03 05:37:50;;;;;;;7.63;3.30;;;11.30;1.00;;;13.29;51.25;98764.69;4994943;28;129978;-76
2022/05/03 05:40:19;;;;;;;6.22;3.40;;;11.50;1.00;;;13.28;50.23;98763.91;4995690;28;129040;-72
2022/05/03 05:42:49;;;;;;;7.53;3.30;;;11.40;1.00;;;13.43;50.55;98764.31;4997635;28;126607;-77
2022/05/03 05:45:18;;;;;;;8.77;4.05;;;11.50;1.00;;;13.66;50.01;98753.63;4995369;28;125337;-78
2022/05/03 05:47:46;;;;;;;7.93;3.75;;;11.70;1.00;;;13.71;49.01;98758.03;5016604;28;130372;-73
2022/05/03 05:50:17;;;;;;;7.82;3.80;;;11.60;1.00;;;13.82;49.22;98753.63;5017243;28;128891;-76
2022/05/03 05:55:33;;;;;;;6.10;3.40;;;11.80;1.00;;;14.37;48.11;98751.84;5014521;28;126385;-77
2022/05/03 05:58:02;;;;;;;9.13;3.63;;;12.00;1.00;;;14.48;47.53;98748.59;4999421;28;129984;-77
2022/05/03 06:00:31;;;;;;;7.18;3.88;;;12.20;1.00;;;14.70;46.78;98756.13;4998774;27;128722;-75
2022/05/03 06:03:00;;;;;;;7.55;3.55;;;12.40;1.00;;;14.86;46.39;98744.34;4957365;28;125738;-75
2022/05/03 06:05:31;;;;;;;7.85;3.45;;;12.50;1.00;;;15.09;45.55;98756.16;4976753;28;125855;-74
2022/05/03 06:07:59;;;;;;;7.22;3.38;;;12.70;1.00;;;15.31;44.25;98751.09;4982524;28;129488;-74
2022/05/03 06:10:28;;;;;;;5.43;2.80;;;12.50;1.00;;;15.50;44.09;98752.22;4999770;28;128427;-75
2022/05/03 06:12:59;;;;;;;7.00;3.00;;;13.00;1.00;;;15.44;43.88;98747.06;5014538;28;126218;-75
2022/05/03 06:15:27;;;;;;;6.72;3.03;;;12.70;1.00;;;15.28;43.09;98743.63;5013694;28;125608;-76
2022/05/03 06:17:57;;;;;;;5.30;2.88;;;12.50;1.00;;;15.87;42.67;98736.13;5013081;28;130451;-75
2022/05/03 06:20:26;;;;;;;4.47;2.60;;;13.10;1.00;;;16.24;41.71;98740.22;5013710;28;131117;-75
2022/05/03 06:22:56;;;;;;;5.15;2.83;;;13.50;1.00;;;16.10;41.10;98738.84;5013043;28;125524;-76
2022/05/03 06:25:25;;;;;;;5.45;3.10;;;13.10;1.00;;;15.99;41.38;98726.94;5012907;28;125497;-76
2022/05/03 06:27:53;;;;;;;6.22;2.67;;;13.50;1.00;;;15.92;41.44;98722.13;5015851;28;130326;-73
2022/05/03 06:30:22;;;;;;;7.20;3.10;;;13.50;1.00;;;16.21;41.17;98727.28;5012080;27;130593;-75
2022/05/03 06:32:50;;;;;;;7.28;3.05;;;13.70;1.00;;;15.77;41.74;98726.59;4995964;28;125331;-74
2022/05/03 06:35:19;;;;;;;9.10;3.20;;;13.30;1.00;;;15.55;42.30;98725.41;5012794;28;125218;-75
2022/05/03 06:37:47;;;;;;;5.82;3.08;;;13.00;1.00;;;15.46;42.64;98728.34;5012842;28;131173;-76
2022/05/03 06:40:17;;;;;;;6.57;2.60;;;13.00;1.00;;;15.79;42.36;98723.47;4980572;28;129230;-76
2022/05/03 06:42:46;;;;;;;4.40;2.60;;;13.20;1.00;;;15.99;41.75;98724.19;4994835;28;126537;-77
2022/05/03 06:45:14;;;;;;;7.28;3.35;;;13.40;1.00;;;16.08;41.61;98719.25;4994219;28;126486;-76
2022/05/03 06:47:43;;;;;;;5.30;2.45;;;13.30;1.00;;;15.88;41.15;98725.94;5013739;28;130011;-77
2022/05/03 06:50:11;;;;;;;4.20;2.22;;;13.40;1.00;;;16.05;41.05;98720.00;5014193;28;129600;-77
2022/05/03 06:55:27;;;;;;;7.68;3.00;;;13.50;1.00;;;15.92;40.64;98715.88;5015009;28;125389;-77
2022/05/03 06:57:55;;;;;;;8.05;2.92;;;13.80;1.00;;;16.09;40.68;98720.81;5011891;28;130288;-78
2022/05/03 07:00:24;;;;;;;6.50;2.70;;;14.10;1.00;;;16.02;40.33;98723.47;5013651;28;129026;-78
2022/05/03 07:02:52;;;;;;;4.38;2.65;;;13.60;1.00;;;15.82;41.47;98726.28;5010988;28;125773;-77
2022/05/03 07:05:21;;;;;;;5.65;2.47;;;13.60;1.00;;;15.98;40.50;98730.81;5009933;28;124946;-78
2022/05/03 07:07:49;;;;;;;4.82;2.35;;;13.60;1.00;;;16.18;39.78;98726.84;5010483;28;129412;-77
2022/05/03 07:10:18;;;;;;;5.78;3.42;;;13.70;1.00;;;16.22;39.20;98726.91;5011718;28;130336;-76
2022/05/03 07:12:48;;;;;;;4.63;2.50;;;13.90;1.00;;;16.07;38.44;98728.63;5012412;28;126464;-78
2022/05/03 07:15:18;;;;;;;5.85;2.22;;;13.70;1.00;;;16.07;39.19;98728.63;5013499;28;125519;-76
2022/05/03 07:23:18;;;;;;;5.22;2.33;;;13.40;1.00;;;16.10;37.83;98727.09;5014339;28;125187;-75
2022/05/03 07:25:46;;;;;;;4.35;2.00;;;13.70;1.00;;;15.55;38.06;98724.59;5015209;28;125359;-78
2022/05/03 07:28:16;;;;;;;5.78;2.13;;;13.80;1.00;;;15.17;39.25;98724.28;5014664;28;130207;-77
2022/05/03 07:30:44;;;;;;;5.55;2.08;;;13.70;1.00;;;15.56;38.64;98720.69;4996094;28;129505;-77
2022/05/03 07:33:13;;;;;;;6.35;2.33;;;14.00;1.00;;;15.94;37.79;98724.50;5014036;28;127638;-77
2022/05/03 07:35:41;;;;;;;4.80;2.15;;;14.10;1.00;;;16.13;37.63;98732.63;5014328;28;127722;-74
2022/05/03 07:38:10;;;;;;;5.57;2.10;;;13.90;1.00;;;16.28;37.17;98722.69;5013719;28;129632;-77
2022/05/03 07:40:38;;;;;;;4.72;2.10;;;13.90;1.00;;;16.55;37.05;98722.69;5013987;28;129488;-76
2022/05/03 07:43:07;;;;;;;4.55;2.35;;;14.30;1.00;;;16.85;36.47;98717.19;5016041;27;126204;-76
2022/05/03 07:45:36;;;;;;;5.55;2.60;;;14.50;1.00;;;16.95;37.55;98720.47;5017349;28;125244;-78
2022/05/03 07:48:07;;;;;;;5.10;2.22;;;14.90;1.00;;;17.17;36.91;98714.09;5017155;28;130511;-78
2022/05/03 07:50:35;;;;;;;5.75;2.40;;;15.20;1.00;;;17.27;35.30;98709.09;5019752;28;129281;-76
2022/05/03 07:53:04;;;;;;;6.18;2.75;;;14.50;1.00;;;17.16;35.31;98711.72;5017431;28;126142;-77
2022/05/03 07:55:33;;;;;;;5.18;2.22;;;14.50;1.00;;;17.40;35.79;98710.38;5017325;28;126010;-77
2022/05/03 07:58:01;;;;;;;8.38;2.70;;;14.90;1.00;;;17.33;36.27;98718.56;5016520;28;129620;-78
2022/05/03 08:00:30;;;;;;;7.53;2.83;;;14.80;1.00;;;16.83;36.82;98719.53;5019065;28;128586;-75
2022/05/03 08:02:59;;;;;;;5.60;2.55;;;14.80;1.00;;;16.86;37.10;98713.31;5017097;28;125779;-77
2022/05/03 08:05:28;;;;;;;5.60;2.80;;;14.50;1.00;;;16.91;37.06;98709.47;5017227;28;125484;-76
2022/05/03 08:07:57;;;;;;;5.95;2.50;;;14.60;1.00;;;17.17;37.59;98711.34;5017240;28;129578;-74
2022/05/03 08:10:26;;;;;;;3.95;2.33;;;15.30;1.00;;;17.56;36.74;98705.47;5017431;28;129385;-75
2022/05/03 08:12:55;;;;;;;6.05;2.30;;;15.70;1.00;;;17.41;35.76;98704.53;5017031;28;125468;-74
2022/05/03 08:15:23;;;;;;;6.07;2.35;;;15.40;1.00;;;17.33;35.06;98707.59;5017707;28;125760;-74
2022/05/03 08:17:52;;;;;;;4.63;2.40;;;14.90;1.00;;;17.12;36.51;98708.91;5016203;27;130061;-74
2022/05/03 08:20:22;;;;;;;4.88;2.42;;;15.10;1.00;;;17.41;36.20;98698.25;5038985;27;128984;-78
2022/05/03 08:22:51;;;;;;;6.55;2.30;;;15.30;1.00;;;16.97;36.49;98709.91;5036818;27;127084;-73
2022/05/03 08:25:20;;;;;;;5.38;2.42;;;15.10;1.00;;;17.06;36.38;98704.94;5036070;27;126002;-75
2022/05/03 08:27:48;;;;;;;6.53;2.40;;;15.00;1.00;;;17.40;34.76;98696.69;5037183;27;130472;-75
2022/05/03 08:30:17;;;;;;;6.18;2.65;;;15.00;1.00;;;17.54;36.52;98701.50;5037065;27;129609;-75
2022/05/03 08:32:45;;;;;;;6.07;2.70;;;15.30;1.00;;;17.36;36.72;98695.88;5037309;27;126469;-78
2022/05/03 08:35:15;;;;;;;6.45;2.75;;;15.50;1.00;;;17.64;36.16;98705.50;5037193;27;125725;-78
2022/05/03 08:43:26;;;;;;;6.20;2.30;;;16.40;1.00;;;18.59;33.88;98684.66;5022407;27;125736;-79
2022/05/03 08:45:57;;;;;;;4.43;2.67;;;16.60;99.90;;;18.36;33.61;98689.63;5037005;27;126042;-76
2022/05/03 08:48:30;;;;;;;5.35;2.70;;;15.90;1.00;;;18.56;33.92;98682.66;5037191;27;129879;-77
2022/05/03 08:51:01;;;;;;;11.65;2.55;;;16.40;1.00;;;18.78;33.79;98688.28;5036912;27;130381;-77
2022/05/03 08:53:31;;;;;;;5.43;2.10;;;16.60;1.00;;;19.15;32.61;98684.47;5036140;27;125967;-76
2022/05/03 08:56:00;;;;;;;7.45;2.28;;;16.60;99.90;;;18.88;32.68;98687.53;5036543;27;125768;-76
2022/05/03 08:58:29;;;;;;;5.78;2.30;;;16.60;99.90;;;19.22;32.14;98668.78;5036384;27;130295;-78
2022/05/03 09:00:58;;;;;;;5.65;2.38;;;16.80;99.90;;;18.77;33.66;98659.19;5036390;27;130374;-77
2022/05/03 09:03:26;;;;;;;4.78;2.13;;;16.30;1.00;;;19.16;32.93;98669.56;5036334;27;125655;-77
2022/05/03 09:05:54;;;;;;;4.80;2.10;;;16.90;99.90;;;19.07;31.19;98671.88;5037208;27;125705;-78
2022/05/03 09:08:24;;;;;;;5.20;2.47;;;16.20;99.90;;;18.83;30.60;98674.16;5036713;27;130295;-78
2022/05/03 09:10:54;;;;;;;4.72;2.10;;;15.70;99.90;;;18.45;30.91;98670.81;5036241;27;129955;-78
2022/05/03 09:13:25;;;;;;;4.32;2.13;;;15.30;99.90;;;18.85;31.54;98656.13;5035939;27;126760;-76
2022/05/03 09:15:56;;;;;;;6.57;2.00;;;15.80;99.90;;;19.20;31.79;98659.34;5036354;27;126868;-75
2022/05/03 09:18:27;;;;;;;5.15;2.00;;;16.80;99.90;;;19.73;30.52;98660.59;5036029;27;129982;-76
2022/05/03 09:23:50;;;;;;;3.40;1.95;;;15.70;99.90;;;19.58;29.84;98663.31;5021421;27;125400;-78
2022/05/03 09:26:22;;;;;;;7.72;2.67;;;16.50;99.90;;;19.49;29.41;98662.13;5036794;27;125690;-77
2022/05/03 09:28:53;;;;;;;3.67;1.60;;;16.70;99.90;;;19.46;29.19;98658.22;5004705;27;129759;-76
2022/05/03 09:31:31;;;;;;;3.33;1.77;;;16.60;99.90;;;19.67;28.90;98643.66;5036277;27;129534;-75
2022/05/03 09:34:02;;;;;;;4.80;1.83;;;16.90;99.90;;;19.35;29.58;98649.97;5020942;27;125392;-75
2022/05/03 09:36:46;;;;;;;5.03;2.15;;;17.00;99.90;;;19.82;29.41;98646.44;5036219;27;126014;-75
2022/05/03 09:39:23;;;;;;;6.88;1.95;;;17.30;99.90;;;19.68;29.07;98645.25;5035428;27;130306;-78
2022/05/03 09:42:09;;;;;;;3.45;1.80;;;16.90;99.90;;;19.79;29.31;98650.78;5035774;27;129484;-76
2022/05/03 09:44:50;;;;;;;4.40;1.83;;;16.40;99.90;;;20.32;28.91;98660.16;5017939;27;125900;-75
2022/05/03 09:47:21;;;;;;;5.68;2.50;;;16.90;99.90;;;19.77;29.28;98657.84;5038260;27;125627;-75
2022/05/03 09:49:49;;;;;;;3.35;1.70;;;16.20;99.90;;;19.28;30.58;98644.44;5035774;27;130583;-75
2022/05/03 09:52:29;;;;;;;9.60;2.60;;;16.20;99.90;;;19.14;31.06;98644.41;5021078;27;130267;-75
2022/05/03 09:55:03;;;;;;;3.53;1.85;;;16.30;99.90;;;19.04;30.96;98646.75;5035860;27;125391;-77
2022/05/03 09:57:36;;;;;;;3.17;1.85;;;16.00;99.90;;;19.22;31.20;98644.03;5035938;27;125084;-77
2022/05/03 10:00:07;;;;;;;4.25;2.33;;;16.40;99.90;;;19.84;29.94;98641.34;5035436;27;129746;-77
2022/05/03 10:02:45;;;;;;;4.50;1.98;;;16.30;99.90;;;20.13;30.93;98641.28;5037186;27;129707;-76
2022/05/03 10:05:14;;;;;;;5.07;2.30;;;17.40;99.90;;;20.51;29.30;98633.31;5019465;27;125198;-76
2022/05/03 10:07:44;;;;;;;4.57;2.15;;;16.70;99.90;;;20.01;30.31;98635.03;5031758;27;126639;-77
2022/05/03 10:10:14;;;;;;;4.38;2.50;;;16.70;99.90;;;19.74;31.08;98637.38;5030430;27;130562;-76
2022/05/03 10:12:45;;;;;;;3.63;1.88;;;16.40;99.90;;;19.76;30.72;98640.53;5014678;28;130756;-76
2022/05/03 10:20:35;;;;;;;6.63;3.83;;;16.30;99.90;;;19.52;30.89;98647.59;5015188;28;125663;-77
2022/05/03 10:21:00;;;;;;;8.77;3.17;;;16.40;99.90;;;19.26;30.32;98633.06;5011201;27;129191;-76
2022/05/03 10:23:33;;;;;;;5.40;2.92;;;16.00;99.90;;;19.63;30.92;98629.13;5035413;27;129763;-77
2022/05/03 10:26:05;;;;;;;7.07;2.10;;;16.70;99.90;;;19.98;30.49;98626.78;5033127;27;126244;-79
2022/05/03 10:29:08;;;;;;;3.85;2.00;;;17.00;99.90;;;19.84;30.57;98613.81;4982992;28;125915;-78
2022/05/03 10:31:56;;;;;;;6.93;3.38;;;17.30;99.90;;;19.83;30.92;98618.50;5013760;27;129545;-75
2022/05/03 10:34:45;;;;;;;6.60;2.00;;;17.10;99.90;;;19.21;30.67;98616.91;5034971;27;129425;-76
2022/05/03 10:37:16;;;;;;;4.13;1.90;;;17.00;99.90;;;19.50;31.37;98614.19;5013637;27;126040;-77
2022/05/03 10:39:54;;;;;;;4.10;1.80;;;16.70;99.90;;;19.26;31.96;98618.50;4999735;28;125419;-78
2022/05/03 10:42:27;;;;;;;5.20;1.92;;;16.50;99.90;;;19.31;32.31;98610.66;5014575;28;130698;-76
2022/05/03 10:45:03;;;;;;;4.95;2.65;;;16.50;99.90;;;19.01;32.75;98609.03;5014651;28;129559;-77
2022/05/03 10:47:48;;;;;;;5.38;1.92;;;16.30;99.90;;;18.75;32.66;98607.38;5016759;28;125557;-77
2022/05/03 10:50:28;;;;;;;5.13;2.00;;;16.00;99.90;;;18.97;32.30;98613.72;5015324;28;125675;-76
2022/05/03 10:53:22;;;;;;;4.18;2.15;;;16.00;99.90;;;18.86;32.70;98602.72;5014563;28;132117;-79
2022/05/03 10:56:21;;;;;;;4.50;2.05;;;16.30;99.90;;;18.94;32.80;98603.50;5014283;28;130384;-76
2022/05/03 10:59:13;;;;;;;4.80;2.05;;;16.50;99.90;;;18.30;32.03;98593.84;4999224;28;126483;-75
2022/05/03 11:02:11;;;;;;;4.75;2.25;;;15.80;99.90;;;17.94;33.21;98614.84;4999769;28;126318;-77
2022/05/03 11:05:16;;;;;;;5.68;2.40;;;15.50;99.90;;;17.67;33.77;98604.06;4969026;28;130114;-77
2022/05/03 11:08:15;;;;;;;5.78;2.40;;;15.60;99.90;;;17.64;34.00;98609.50;5014299;28;129448;-75
2022/05/03 11:10:45;;;;;;;5.32;2.47;;;15.60;99.90;;;17.50;33.51;98596.44;5014271;28;125791;-76
2022/05/03 11:13:39;;;;;;;4.90;2.10;;;15.60;99.90;;;17.23;32.80;98600.16;5013386;28;125511;-78
2022/05/03 11:16:27;;;;;;;5.70;2.45;;;15.60;99.90;;;17.21;33.69;98599.75;5012488;28;130413;-76
2022/05/03 11:18:57;;;;;;;4.25;2.47;;;15.60;99.90;;;17.29;33.80;98597.06;4999425;28;131821;-75
2022/05/03 11:21:26;;;;;;;5.32;2.75;;;15.60;99.90;;;17.06;34.38;98606.25;5025763;27;125750;-76
2022/05/03 11:23:56;;;;;;;7.55;2.38;;;15.30;99.90;;;17.04;35.24;98603.09;5038077;27;125380;-76